createdAt,value
2018-05-10T00:00:38.273Z,20.07
2018-05-10T00:03:06.647Z,14.87
2018-05-10T00:05:35.119Z,32.73
2018-05-10T00:08:03.494Z,13.23
2018-05-10T00:10:31.909Z,17.50
2018-05-10T00:13:00.758Z,15.47
2018-05-10T00:15:29.114Z,14.47
2018-05-10T00:17:57.479Z,15.43
2018-05-10T00:20:25.850Z,12.60
2018-05-10T00:22:54.227Z,28.50
2018-05-10T00:25:22.781Z,15.87
2018-05-10T00:27:51.096Z,18.03
2018-05-10T00:30:19.580Z,16.77
2018-05-10T00:32:47.966Z,17.23
2018-05-10T00:35:16.343Z,22.03
2018-05-10T00:37:44.703Z,16.43
2018-05-10T00:40:13.072Z,17.37
2018-05-10T00:42:41.834Z,18.07
2018-05-10T00:45:10.211Z,16.20
2018-05-10T00:47:38.574Z,13.33
2018-05-10T00:50:06.934Z,17.47
2018-05-10T00:52:35.294Z,13.13
2018-05-10T00:55:03.657Z,22.83
2018-05-10T00:57:32.512Z,17.87
2018-05-10T01:00:00.890Z,19.50
2018-05-10T01:02:29.282Z,15.97
2018-05-10T01:04:57.752Z,20.93
2018-05-10T01:07:26.443Z,14.63
2018-05-10T01:09:54.920Z,16.63
2018-05-10T01:12:23.357Z,14.97
2018-05-10T01:14:51.712Z,20.27
2018-05-10T01:17:20.568Z,12.30
2018-05-10T01:19:48.936Z,17.77
2018-05-10T01:22:17.304Z,21.80
2018-05-10T01:24:45.691Z,15.47
2018-05-10T01:27:14.068Z,15.37
2018-05-10T01:29:42.443Z,19.57
2018-05-10T01:32:10.837Z,16.13
2018-05-10T01:34:39.196Z,26.00
2018-05-10T01:37:07.585Z,20.33
2018-05-10T01:39:35.950Z,23.67
2018-05-10T01:42:04.314Z,19.93
2018-05-10T01:44:32.699Z,21.93
2018-05-10T01:47:01.081Z,20.00
2018-05-10T01:49:29.469Z,15.03
2018-05-10T01:51:57.892Z,16.83
2018-05-10T01:54:27.408Z,13.40
2018-05-10T01:56:56.178Z,12.10
2018-05-10T01:59:24.630Z,16.10
2018-05-10T02:01:53.025Z,17.30
2018-05-10T02:04:21.408Z,19.90
2018-05-10T02:06:49.768Z,17.70
2018-05-10T02:09:18.130Z,13.67
2018-05-10T02:11:46.516Z,18.00
2018-05-10T02:14:14.908Z,15.23
2018-05-10T02:16:43.270Z,18.80
2018-05-10T02:19:11.634Z,18.97
2018-05-10T02:21:40.056Z,18.60
2018-05-10T02:24:08.440Z,16.60
2018-05-10T02:26:36.909Z,16.83
2018-05-10T02:29:05.271Z,18.17
2018-05-10T02:31:33.646Z,11.53
2018-05-10T02:34:02.022Z,11.10
2018-05-10T02:36:30.483Z,16.50
2018-05-10T02:38:58.904Z,20.27
2018-05-10T02:41:27.189Z,14.63
2018-05-10T02:43:55.565Z,13.17
2018-05-10T02:46:23.961Z,18.10
2018-05-10T02:48:52.411Z,11.23
2018-05-10T02:51:20.801Z,19.33
2018-05-10T02:53:49.162Z,20.03
2018-05-10T02:56:17.521Z,17.53
2018-05-10T02:58:45.887Z,14.90
2018-05-10T03:01:14.251Z,18.60
2018-05-10T03:03:43.039Z,15.67
2018-05-10T03:06:11.813Z,34.30
2018-05-10T03:08:40.198Z,12.30
2018-05-10T03:11:08.648Z,14.53
2018-05-10T03:13:37.019Z,15.43
2018-05-10T03:16:05.415Z,15.73
2018-05-10T03:18:33.790Z,15.53
2018-05-10T03:21:02.143Z,20.77
2018-05-10T03:23:30.646Z,13.57
2018-05-10T03:25:59.031Z,15.10
2018-05-10T03:28:27.500Z,20.30
2018-05-10T03:30:55.882Z,14.17
2018-05-10T03:33:24.349Z,24.90
2018-05-10T03:35:52.630Z,22.30
2018-05-10T03:38:20.990Z,18.83
2018-05-10T03:40:49.407Z,11.80
2018-05-10T03:43:17.768Z,11.57
2018-05-10T03:45:46.139Z,13.67
2018-05-10T03:48:14.508Z,10.53
2018-05-10T03:50:42.915Z,18.03
2018-05-10T03:53:11.307Z,13.07
2018-05-10T03:55:39.786Z,15.10
2018-05-10T03:58:08.145Z,16.63
2018-05-10T04:00:36.543Z,16.97
2018-05-10T04:06:50.323Z,16.73
2018-05-10T04:09:36.902Z,16.80
2018-05-10T04:12:05.285Z,21.13
2018-05-10T04:14:33.783Z,23.53
2018-05-10T04:17:02.146Z,14.27
2018-05-10T04:19:30.616Z,11.87
2018-05-10T04:21:58.985Z,22.23
2018-05-10T04:24:27.363Z,13.97
2018-05-10T04:26:56.380Z,17.27
2018-05-10T04:29:24.760Z,23.10
2018-05-10T04:31:53.226Z,19.33
2018-05-10T04:34:21.615Z,16.87
2018-05-10T04:36:50.015Z,26.60
2018-05-10T04:39:18.374Z,21.70
2018-05-10T04:41:46.735Z,11.77
2018-05-10T04:44:15.115Z,10.87
2018-05-10T04:46:43.475Z,11.77
2018-05-10T04:49:11.878Z,14.43
2018-05-10T04:51:40.253Z,12.67
2018-05-10T04:54:08.615Z,15.80
2018-05-10T04:56:36.983Z,15.90
2018-05-10T04:59:05.389Z,10.50
2018-05-10T05:01:33.886Z,11.60
2018-05-10T05:04:02.590Z,20.60
2018-05-10T05:06:31.047Z,15.00
2018-05-10T05:08:59.492Z,21.00
2018-05-10T05:11:27.829Z,10.93
2018-05-10T05:13:56.230Z,11.10
2018-05-10T05:16:25.033Z,15.70
2018-05-10T05:18:53.412Z,20.90
2018-05-10T05:21:21.794Z,40.20
2018-05-10T05:23:50.142Z,17.27
2018-05-10T05:26:20.035Z,14.20
2018-05-10T05:28:48.403Z,19.20
2018-05-10T05:31:16.850Z,10.47
2018-05-10T05:33:45.332Z,12.73
2018-05-10T05:36:13.721Z,15.63
2018-05-10T05:38:42.113Z,11.23
2018-05-10T05:41:10.588Z,20.13
2018-05-10T05:43:39.314Z,15.43
2018-05-10T05:46:07.679Z,18.03
2018-05-10T05:48:36.195Z,11.33
2018-05-10T05:51:04.963Z,23.33
2018-05-10T05:53:33.318Z,15.03
2018-05-10T05:56:01.715Z,8.40
2018-05-10T05:58:30.099Z,16.13
2018-05-10T06:00:58.459Z,14.73
2018-05-10T06:03:26.995Z,14.17
2018-05-10T06:05:55.358Z,14.23
2018-05-10T06:08:24.109Z,22.97
2018-05-10T06:10:52.479Z,15.50
2018-05-10T06:13:20.866Z,13.40
2018-05-10T06:15:49.344Z,21.10
2018-05-10T06:18:17.699Z,11.00
2018-05-10T06:20:46.074Z,11.17
2018-05-10T06:23:14.442Z,14.30
2018-05-10T06:25:42.866Z,11.43
2018-05-10T06:28:11.337Z,12.33
2018-05-10T06:30:39.701Z,16.07
2018-05-10T06:33:08.091Z,10.80
2018-05-10T06:35:36.461Z,16.70
2018-05-10T06:38:04.821Z,13.03
2018-05-10T06:40:33.300Z,13.93
2018-05-10T06:43:01.702Z,16.40
2018-05-10T06:45:30.170Z,21.70
2018-05-10T06:47:58.562Z,27.63
2018-05-10T06:50:26.923Z,13.40
2018-05-10T06:52:55.366Z,11.50
2018-05-10T06:55:24.868Z,14.50
2018-05-10T06:57:53.635Z,15.10
2018-05-10T07:00:21.998Z,17.60
2018-05-10T07:02:50.598Z,21.53
2018-05-10T07:05:18.967Z,10.93
2018-05-10T07:07:47.330Z,17.77
2018-05-10T07:10:15.700Z,11.10
2018-05-10T07:12:44.077Z,15.37
2018-05-10T07:15:12.461Z,15.73
2018-05-10T07:17:40.829Z,18.73
2018-05-10T07:20:09.237Z,17.50
2018-05-10T07:22:37.718Z,13.57
2018-05-10T07:25:06.304Z,11.83
2018-05-10T07:27:34.614Z,12.50
2018-05-10T07:30:03.474Z,13.70
2018-05-10T07:32:31.831Z,17.83
2018-05-10T07:35:00.222Z,21.13
2018-05-10T07:37:28.611Z,19.80
2018-05-10T07:39:56.989Z,7.70
2018-05-10T07:42:25.355Z,13.87
2018-05-10T07:44:53.732Z,21.07
2018-05-10T07:47:22.397Z,22.17
2018-05-10T07:49:50.726Z,18.33
2018-05-10T07:52:19.089Z,7.03
2018-05-10T07:54:47.464Z,19.63
2018-05-10T07:57:15.856Z,17.30
2018-05-10T07:59:44.237Z,12.37
2018-05-10T08:02:12.724Z,7.00
2018-05-10T08:04:41.064Z,6.10
2018-05-10T08:07:09.547Z,14.33
2018-05-10T08:09:37.908Z,15.03
2018-05-10T08:12:06.293Z,6.13
2018-05-10T08:14:34.723Z,7.67
2018-05-10T08:17:03.226Z,9.23
2018-05-10T08:19:31.557Z,7.30
2018-05-10T08:21:59.935Z,12.73
2018-05-10T08:24:28.319Z,5.60
2018-05-10T08:26:56.797Z,8.43
2018-05-10T08:29:33.050Z,6.27
2018-05-10T08:32:01.444Z,17.33
2018-05-10T08:34:29.848Z,7.90
2018-05-10T08:36:58.639Z,6.70
2018-05-10T08:39:27.033Z,10.97
2018-05-10T08:41:55.453Z,9.17
2018-05-10T08:44:23.837Z,3.83
2018-05-10T08:46:52.235Z,9.10
2018-05-10T08:49:21.122Z,9.13
2018-05-10T08:51:49.617Z,7.37
2018-05-10T08:54:18.291Z,12.90
2018-05-10T08:56:47.174Z,10.57
2018-05-10T08:59:15.559Z,9.53
2018-05-10T09:01:43.967Z,5.97
2018-05-10T09:04:12.437Z,5.33
2018-05-10T09:06:41.243Z,7.97
2018-05-10T09:09:10.126Z,10.83
2018-05-10T09:11:38.646Z,14.70
2018-05-10T09:14:07.058Z,7.83
2018-05-10T09:16:35.449Z,6.83
2018-05-10T09:19:03.826Z,5.17
2018-05-10T09:21:32.208Z,10.03
2018-05-10T09:24:01.088Z,5.70
2018-05-10T09:26:29.466Z,8.10
2018-05-10T09:28:57.851Z,4.40
2018-05-10T09:31:26.679Z,11.13
2018-05-10T09:33:55.172Z,4.37
2018-05-10T09:36:23.982Z,6.70
2018-05-10T09:38:52.385Z,7.20
2018-05-10T09:41:20.778Z,6.40
2018-05-10T09:43:49.660Z,7.17
2018-05-10T09:46:18.452Z,7.43
2018-05-10T09:48:46.825Z,8.37
2018-05-10T09:51:15.222Z,7.67
2018-05-10T09:53:44.036Z,10.17
2018-05-10T09:56:12.442Z,15.27
2018-05-10T09:58:40.857Z,10.13
2018-05-10T10:01:09.242Z,5.77
2018-05-10T10:03:38.084Z,8.97
2018-05-10T10:06:06.548Z,7.73
2018-05-10T10:08:35.480Z,9.60
2018-05-10T10:11:04.042Z,4.13
2018-05-10T10:13:32.386Z,6.10
2018-05-10T10:16:00.852Z,19.90
2018-05-10T10:18:29.207Z,6.20
2018-05-10T10:20:57.602Z,6.73
2018-05-10T10:23:25.966Z,8.90
2018-05-10T10:25:54.319Z,11.40
2018-05-10T10:28:22.682Z,14.23
2018-05-10T10:30:51.047Z,12.83
2018-05-10T10:33:19.886Z,7.33
2018-05-10T10:35:48.259Z,8.53
2018-05-10T10:38:16.719Z,9.57
2018-05-10T10:40:45.002Z,6.83
2018-05-10T10:43:13.358Z,17.37
2018-05-10T10:45:41.790Z,9.23
2018-05-10T10:48:10.159Z,7.70
2018-05-10T10:50:38.517Z,6.87
2018-05-10T10:53:06.919Z,14.90
2018-05-10T10:55:35.313Z,8.90
2018-05-10T10:58:03.674Z,13.10
2018-05-10T11:00:32.028Z,9.23
2018-05-10T11:03:00.426Z,12.23
2018-05-10T11:05:28.796Z,10.17
2018-05-10T11:07:57.174Z,10.77
2018-05-10T11:10:25.533Z,9.87
2018-05-10T11:12:53.910Z,15.03
2018-05-10T11:15:22.276Z,10.80
2018-05-10T11:17:51.147Z,20.93
2018-05-10T11:20:19.563Z,16.33
2018-05-10T11:22:48.051Z,19.93
2018-05-10T11:25:16.419Z,10.83
2018-05-10T11:27:44.800Z,22.60
2018-05-10T11:30:13.221Z,18.83
2018-05-10T11:32:41.580Z,11.37
2018-05-10T11:35:10.285Z,16.83
2018-05-10T11:37:38.667Z,15.63
2018-05-10T11:40:07.075Z,11.60
2018-05-10T11:42:35.443Z,18.33
2018-05-10T11:45:03.806Z,19.27
2018-05-10T11:47:32.174Z,30.53
2018-05-10T11:50:00.539Z,17.17
2018-05-10T11:52:28.999Z,10.40
2018-05-10T11:54:57.357Z,8.40
2018-05-10T11:57:26.153Z,24.30
2018-05-10T11:59:54.544Z,19.03
2018-05-10T12:02:22.911Z,22.00
2018-05-10T12:04:51.750Z,25.40
2018-05-10T12:07:20.122Z,11.23
2018-05-10T12:09:48.504Z,8.73
2018-05-10T12:12:16.883Z,9.13
2018-05-10T12:14:45.259Z,19.20
2018-05-10T12:17:13.624Z,19.77
2018-05-10T12:19:42.037Z,18.83
2018-05-10T12:22:10.428Z,11.00
2018-05-10T12:24:39.240Z,13.80
2018-05-10T12:27:08.022Z,15.60
2018-05-10T12:29:36.865Z,13.87
2018-05-10T12:32:05.269Z,20.07
2018-05-10T12:34:34.108Z,15.53
2018-05-10T12:37:02.479Z,16.90
2018-05-10T12:39:30.871Z,17.73
2018-05-10T12:41:59.246Z,11.93
2018-05-10T12:44:27.666Z,27.83
2018-05-10T12:46:56.036Z,13.00
2018-05-10T12:49:24.397Z,13.97
2018-05-10T12:51:52.810Z,14.97
2018-05-10T12:54:21.225Z,14.70
2018-05-10T12:56:49.643Z,19.83
2018-05-10T12:59:18.031Z,10.60
2018-05-10T13:01:46.396Z,19.80
2018-05-10T13:04:14.758Z,16.10
2018-05-10T13:06:43.450Z,15.47
2018-05-10T13:09:11.751Z,19.43
2018-05-10T13:11:40.272Z,21.00
2018-05-10T13:14:09.030Z,20.73
2018-05-10T13:16:37.402Z,15.50
2018-05-10T13:19:05.771Z,10.23
2018-05-10T13:21:34.143Z,11.40
2018-05-10T13:24:02.563Z,18.63
2018-05-10T13:26:31.418Z,15.90
2018-05-10T13:29:00.538Z,14.00
2018-05-10T13:31:29.258Z,18.57
2018-05-10T13:33:58.016Z,19.30
2018-05-10T13:36:26.383Z,22.73
2018-05-10T13:38:54.774Z,24.20
2018-05-10T13:41:23.833Z,18.00
2018-05-10T13:43:52.196Z,18.70
2018-05-10T13:46:20.700Z,13.57
2018-05-10T13:48:49.178Z,17.43
2018-05-10T13:51:17.540Z,18.20
2018-05-10T13:53:46.219Z,23.60
2018-05-10T13:56:14.605Z,15.10
2018-05-10T13:58:43.683Z,15.17
2018-05-10T14:01:12.398Z,13.43
2018-05-10T14:03:40.794Z,13.37
2018-05-10T14:06:09.173Z,20.10
2018-05-10T14:08:37.543Z,20.70
2018-05-10T14:11:06.008Z,15.40
2018-05-10T14:13:34.361Z,19.03
2018-05-10T14:16:02.792Z,13.43
2018-05-10T14:18:31.170Z,24.13
2018-05-10T14:20:59.563Z,17.20
2018-05-10T14:23:28.024Z,7.13
2018-05-10T14:25:56.428Z,12.03
2018-05-10T14:28:24.950Z,10.53
2018-05-10T14:30:53.370Z,12.73
2018-05-10T14:33:21.795Z,16.40
2018-05-10T14:35:50.159Z,8.80
2018-05-10T14:38:19.048Z,16.43
2018-05-10T14:40:47.424Z,27.87
2018-05-10T14:43:15.850Z,6.97
2018-05-10T14:45:44.234Z,17.43
2018-05-10T14:48:12.647Z,7.23
2018-05-10T14:50:41.035Z,6.33
2018-05-10T14:53:09.495Z,12.03
2018-05-10T14:55:38.015Z,15.77
2018-05-10T14:58:06.811Z,9.27
2018-05-10T15:00:35.693Z,17.90
2018-05-10T15:03:04.473Z,9.20
2018-05-10T15:05:32.934Z,20.20
2018-05-10T15:08:01.332Z,24.20
2018-05-10T15:10:29.726Z,10.47
2018-05-10T15:12:58.495Z,17.97
2018-05-10T15:15:26.860Z,21.47
2018-05-10T15:17:55.229Z,18.30
2018-05-10T15:20:23.754Z,22.60
2018-05-10T15:22:52.519Z,10.00
2018-05-10T15:25:20.888Z,12.63
2018-05-10T15:27:49.273Z,14.93
2018-05-10T15:30:17.746Z,11.93
2018-05-10T15:32:46.158Z,13.43
2018-05-10T15:35:14.935Z,23.83
2018-05-10T15:37:43.861Z,11.37
2018-05-10T15:40:12.246Z,9.90
2018-05-10T15:42:40.638Z,24.27
2018-05-10T15:45:09.020Z,39.53
2018-05-10T15:47:37.383Z,12.90
2018-05-10T15:50:05.745Z,21.70
2018-05-10T15:52:34.299Z,15.50
2018-05-10T15:55:02.684Z,12.77
2018-05-10T15:57:31.554Z,20.50
2018-05-10T15:59:59.937Z,13.30
2018-05-10T16:02:28.317Z,23.00
2018-05-10T16:04:56.728Z,16.00
2018-05-10T16:07:25.524Z,36.40
2018-05-10T16:09:53.963Z,15.70
2018-05-10T16:12:22.474Z,17.17
2018-05-10T16:14:51.219Z,13.20
2018-05-10T16:17:19.603Z,23.67
2018-05-10T16:19:47.981Z,23.57
2018-05-10T16:22:16.348Z,21.97
2018-05-10T16:24:44.756Z,20.10
2018-05-10T16:27:13.178Z,16.23
2018-05-10T16:29:41.564Z,24.03
2018-05-10T16:32:09.935Z,17.77
2018-05-10T16:34:38.311Z,15.60
2018-05-10T16:37:06.688Z,16.87
2018-05-10T16:39:35.085Z,15.27
2018-05-10T16:42:03.569Z,14.23
2018-05-10T16:44:31.981Z,21.87
2018-05-10T16:47:00.477Z,14.40
2018-05-10T16:49:28.891Z,13.93
2018-05-10T16:51:57.264Z,9.43
2018-05-10T16:54:25.632Z,7.37
2018-05-10T16:56:54.414Z,19.27
2018-05-10T16:59:23.179Z,10.77
2018-05-10T17:01:51.610Z,15.10
2018-05-10T17:04:20.247Z,8.93
2018-05-10T17:09:43.968Z,9.33
2018-05-10T17:12:12.730Z,12.20
2018-05-10T17:14:41.107Z,10.73
2018-05-10T17:17:09.658Z,13.50
2018-05-10T17:19:38.015Z,12.80
2018-05-10T17:22:06.837Z,12.33
2018-05-10T17:24:35.199Z,10.60
2018-05-10T17:27:03.565Z,10.87
2018-05-10T17:29:31.926Z,12.30
2018-05-10T17:32:00.686Z,9.37
2018-05-10T17:34:29.030Z,7.23
2018-05-10T17:36:57.413Z,8.70
2018-05-10T17:39:25.851Z,10.97
2018-05-10T17:41:54.590Z,8.13
2018-05-10T17:44:22.945Z,10.20
2018-05-10T17:46:51.288Z,9.10
2018-05-10T17:49:20.059Z,6.00
2018-05-10T17:51:48.397Z,6.83
2018-05-10T17:54:16.758Z,14.37
2018-05-10T17:56:45.157Z,8.13
2018-05-10T17:59:13.518Z,11.20
2018-05-10T18:01:41.887Z,9.13
2018-05-10T18:04:10.244Z,15.20
2018-05-10T18:06:39.082Z,11.03
2018-05-10T18:09:07.463Z,9.87
2018-05-10T18:11:35.828Z,13.43
2018-05-10T18:14:04.203Z,10.13
2018-05-10T18:16:32.594Z,22.87
2018-05-10T18:19:00.969Z,13.63
2018-05-10T18:21:29.343Z,14.97
2018-05-10T18:23:57.766Z,14.87
2018-05-10T18:26:26.134Z,24.37
2018-05-10T18:28:54.554Z,25.27
2018-05-10T18:31:23.402Z,29.40
2018-05-10T18:33:51.762Z,30.60
2018-05-10T18:36:20.137Z,40.20
2018-05-10T18:38:48.489Z,46.83
2018-05-10T18:41:16.871Z,61.03
2018-05-10T18:43:45.222Z,52.07
2018-05-10T18:46:13.978Z,46.60
2018-05-10T18:48:42.338Z,60.20
2018-05-10T18:51:10.698Z,46.23
2018-05-10T18:53:39.078Z,43.83
2018-05-10T18:56:07.482Z,44.10
2018-05-10T18:58:35.849Z,53.00
2018-05-10T19:01:04.213Z,59.90
2018-05-10T19:03:32.700Z,57.50
2018-05-10T19:06:01.177Z,55.33
2018-05-10T19:08:29.568Z,57.10
2018-05-10T19:10:57.926Z,60.80
2018-05-10T19:13:26.326Z,58.30
2018-05-10T19:15:54.690Z,68.03
2018-05-10T19:18:23.071Z,62.20
2018-05-10T19:20:51.503Z,57.27
2018-05-10T19:23:19.847Z,62.57
2018-05-10T19:25:48.206Z,58.20
2018-05-10T19:28:16.566Z,53.07
2018-05-10T19:30:44.929Z,50.23
2018-05-10T19:33:13.781Z,45.57
2018-05-10T19:35:42.137Z,43.33
2018-05-10T19:38:10.534Z,43.03
2018-05-10T19:40:38.993Z,38.10
2018-05-10T19:43:07.395Z,39.27
2018-05-10T19:45:35.761Z,35.93
2018-05-10T19:48:04.153Z,33.80
2018-05-10T19:50:32.530Z,32.80
2018-05-10T19:53:00.890Z,32.10
2018-05-10T19:55:29.240Z,34.23
2018-05-10T19:57:57.991Z,33.40
2018-05-10T20:00:26.349Z,28.47
2018-05-10T20:02:54.755Z,32.50
2018-05-10T20:05:23.211Z,32.63
2018-05-10T20:07:51.581Z,28.80
2018-05-10T20:10:19.974Z,28.43
2018-05-10T20:12:48.554Z,29.73
2018-05-10T20:15:16.919Z,25.80
2018-05-10T20:17:45.298Z,27.00
2018-05-10T20:20:13.710Z,27.50
2018-05-10T20:22:42.065Z,28.30
2018-05-10T20:25:10.505Z,32.87
2018-05-10T20:27:39.259Z,33.13
2018-05-10T20:30:07.630Z,28.60
2018-05-10T20:32:35.998Z,28.10
2018-05-10T20:35:04.353Z,28.77
2018-05-10T20:37:32.727Z,26.00
2018-05-10T20:40:01.091Z,27.07
2018-05-10T20:42:29.478Z,27.63
2018-05-10T20:44:57.838Z,25.37
2018-05-10T20:47:26.602Z,39.70
2018-05-10T20:49:54.966Z,24.70
2018-05-10T20:52:23.320Z,24.33
2018-05-10T20:54:51.702Z,24.40
2018-05-10T20:57:20.073Z,26.37
2018-05-10T20:59:48.470Z,25.63
2018-05-10T21:02:16.834Z,29.60
2018-05-10T21:04:45.223Z,31.23
2018-05-10T21:07:13.622Z,28.67
2018-05-10T21:09:42.000Z,31.73
2018-05-10T21:12:10.369Z,26.43
2018-05-10T21:14:38.747Z,35.00
2018-05-10T21:17:07.143Z,33.70
2018-05-10T21:19:35.531Z,33.27
2018-05-10T21:22:03.889Z,28.67
2018-05-10T21:24:32.905Z,30.80
2018-05-10T21:27:01.275Z,29.07
2018-05-10T21:29:29.716Z,28.43
2018-05-10T21:31:58.095Z,28.60
2018-05-10T21:34:26.494Z,31.30
2018-05-10T21:36:54.862Z,33.47
2018-05-10T21:39:23.255Z,35.20
2018-05-10T21:41:51.627Z,32.23
2018-05-10T21:44:20.118Z,27.37
2018-05-10T21:46:48.499Z,29.37
2018-05-10T21:49:34.695Z,29.77
2018-05-10T21:52:03.174Z,31.23
2018-05-10T21:54:31.648Z,39.87
2018-05-10T21:57:00.019Z,35.60
2018-05-10T21:59:28.380Z,35.07
2018-05-10T22:01:56.759Z,37.40
2018-05-10T22:04:25.114Z,36.23
2018-05-10T22:06:53.490Z,37.37
2018-05-10T22:09:22.444Z,35.90
2018-05-10T22:11:50.794Z,34.80
2018-05-10T22:14:19.255Z,46.63
2018-05-10T22:16:47.617Z,33.50
2018-05-10T22:19:16.375Z,35.33
2018-05-10T22:21:44.942Z,34.73
2018-05-10T22:24:13.441Z,32.90
2018-05-10T22:26:41.901Z,35.23
2018-05-10T22:29:10.262Z,42.20
2018-05-10T22:31:38.622Z,37.83
2018-05-10T22:34:06.990Z,35.17
2018-05-10T22:36:35.842Z,36.10
2018-05-10T22:39:06.795Z,37.20
2018-05-10T22:41:35.146Z,42.30
2018-05-10T22:44:03.529Z,34.97
2018-05-10T22:46:31.921Z,38.80
2018-05-10T22:49:00.274Z,42.13
2018-05-10T22:51:28.670Z,39.00
2018-05-10T22:53:57.047Z,44.80
2018-05-10T22:56:25.403Z,42.57
2018-05-10T22:58:53.799Z,48.87
2018-05-10T23:01:22.162Z,46.13
2018-05-10T23:03:50.542Z,50.47
2018-05-10T23:06:18.954Z,50.63
2018-05-10T23:08:47.319Z,45.67
2018-05-10T23:11:15.674Z,54.60
2018-05-10T23:13:44.055Z,52.07
2018-05-10T23:16:12.437Z,60.07
2018-05-10T23:18:40.806Z,51.10
2018-05-10T23:21:09.169Z,48.80
2018-05-10T23:23:37.534Z,46.97
2018-05-10T23:26:06.282Z,54.50
2018-05-10T23:28:34.662Z,48.20
2018-05-10T23:31:03.023Z,53.27
2018-05-10T23:33:31.412Z,58.67
2018-05-10T23:35:59.998Z,44.90
2018-05-10T23:38:28.353Z,43.63
2018-05-10T23:40:56.751Z,47.90
2018-05-10T23:43:25.138Z,45.33
2018-05-10T23:45:53.645Z,43.07
2018-05-10T23:48:22.010Z,54.97
2018-05-10T23:50:50.362Z,49.80
2018-05-10T23:53:18.744Z,49.87
2018-05-10T23:55:47.225Z,46.00
2018-05-10T23:58:15.574Z,44.70
